Time;durP1;ratioP1;P1;durP2;ratioP2;P2;SDS_P1;SDS_P2;PMS_P1;PMS_P2;Temp;Humidity;BMP_temperature;BMP_pressure;BME280_temperature;BME280_humidity;BME280_pressure;Samples;Min_cycle;Max_cycle;Signal;HPM_P1;HPM_P2
2021/04/25 00:00:12;;;;;;;7.33;6.63;;;10.00;99.90;;;;;;5141479;27;20391;-84
2021/04/25 00:02:38;;;;;;;7.60;5.73;;;10.10;99.90;;;;;;5141198;27;20387;-83
2021/04/25 00:05:07;;;;;;;7.37;5.83;;;10.20;99.90;;;;;;5141377;27;20456;-84
2021/04/25 00:07:33;;;;;;;7.07;6.17;;;10.20;99.90;;;;;;5123629;27;20923;-84
2021/04/25 00:09:59;;;;;;;8.13;5.90;;;10.20;99.90;;;;;;5122646;27;20398;-84
2021/04/25 00:12:25;;;;;;;8.00;5.90;;;10.20;99.90;;;;;;5106026;27;20165;-84
2021/04/25 00:14:51;;;;;;;10.50;6.77;;;10.10;99.90;;;;;;5122330;27;20415;-83
2021/04/25 00:17:16;;;;;;;11.70;7.37;;;10.10;99.90;;;;;;5122927;27;20454;-84
2021/04/25 00:19:42;;;;;;;9.93;6.80;;;10.10;99.90;;;;;;5122951;27;20172;-84
2021/04/25 00:22:08;;;;;;;11.07;7.90;;;10.10;99.90;;;;;;5122651;27;20199;-84
2021/04/25 00:24:34;;;;;;;12.93;7.30;;;10.10;99.90;;;;;;5140656;27;20157;-84
2021/04/25 00:27:00;;;;;;;11.00;7.53;;;10.10;99.90;;;;;;5140240;27;20161;-83
2021/04/25 00:29:26;;;;;;;7.30;5.53;;;10.00;99.90;;;;;;5140675;27;20214;-84
2021/04/25 00:31:51;;;;;;;7.07;5.77;;;10.00;99.90;;;;;;5140830;27;20594;-84
2021/04/25 00:34:18;;;;;;;9.03;5.70;;;9.90;99.90;;;;;;5122452;27;20200;-84
2021/04/25 00:36:44;;;;;;;12.67;9.80;;;9.80;99.90;;;;;;5140459;27;20650;-84
2021/04/25 00:39:10;;;;;;;12.73;6.83;;;9.80;99.90;;;;;;5142213;27;20517;-84
2021/04/25 00:41:36;;;;;;;13.80;8.07;;;9.80;99.90;;;;;;5143795;27;20303;-83
2021/04/25 00:44:02;;;;;;;19.83;7.63;;;9.80;99.90;;;;;;5108971;27;20426;-84
2021/04/25 00:46:28;;;;;;;8.37;5.67;;;9.80;99.90;;;;;;5110292;27;20259;-84
2021/04/25 00:48:54;;;;;;;6.67;5.97;;;9.70;99.90;;;;;;5126522;28;20426;-84
2021/04/25 00:51:23;;;;;;;8.13;7.00;;;9.60;99.90;;;;;;5146100;28;20288;-84
2021/04/25 00:53:49;;;;;;;14.47;8.40;;;9.60;99.90;;;;;;5150170;28;20233;-83
2021/04/25 00:56:16;;;;;;;8.97;7.70;;;9.60;99.90;;;;;;5143575;28;20438;-84
2021/04/25 00:58:42;;;;;;;9.80;6.77;;;9.60;99.90;;;;;;5158610;27;20432;-83
2021/04/25 01:01:08;;;;;;;8.67;7.73;;;9.60;99.90;;;;;;5147081;28;20395;-84
2021/04/25 01:03:34;;;;;;;9.90;6.63;;;9.60;99.90;;;;;;5143815;28;20398;-84
2021/04/25 01:06:01;;;;;;;13.50;6.13;;;9.50;99.90;;;;;;5143336;28;20423;-84
2021/04/25 01:08:27;;;;;;;14.20;9.47;;;9.50;99.90;;;;;;5140462;28;20476;-84
2021/04/25 01:10:53;;;;;;;9.07;7.10;;;9.50;99.90;;;;;;5122233;28;20690;-83
2021/04/25 01:13:19;;;;;;;7.10;6.40;;;9.40;99.90;;;;;;5140616;28;20164;-83
2021/04/25 01:15:45;;;;;;;7.93;5.93;;;9.30;99.90;;;;;;5122283;28;20487;-83
2021/04/25 01:18:14;;;;;;;10.53;6.63;;;9.30;99.90;;;;;;5140594;28;20390;-83
2021/04/25 01:20:40;;;;;;;11.30;7.73;;;9.20;99.90;;;;;;5140588;28;20395;-84
2021/04/25 01:23:05;;;;;;;8.83;7.03;;;9.20;99.90;;;;;;5121864;28;20391;-84
2021/04/25 01:25:31;;;;;;;9.10;6.57;;;9.20;99.90;;;;;;5121160;28;20157;-84
2021/04/25 01:27:57;;;;;;;10.80;7.57;;;9.20;99.90;;;;;;5121681;28;20255;-83
2021/04/25 01:30:28;;;;;;;10.43;7.80;;;9.00;99.90;;;;;;5139573;28;20189;-83
2021/04/25 01:32:54;;;;;;;10.83;7.10;;;9.00;99.90;;;;;;5139577;28;20160;-83
2021/04/25 01:35:23;;;;;;;14.57;6.90;;;9.10;99.90;;;;;;5122112;28;20477;-84
2021/04/25 01:37:50;;;;;;;14.83;6.40;;;9.10;99.90;;;;;;5140019;28;20414;-83
2021/04/25 01:40:17;;;;;;;10.17;6.90;;;9.00;99.90;;;;;;5120965;28;20419;-83
2021/04/25 01:42:43;;;;;;;6.90;6.07;;;9.00;99.90;;;;;;5103527;28;20446;-83
2021/04/25 01:45:16;;;;;;;11.20;8.37;;;9.00;99.90;;;;;;5138594;28;20729;-83
2021/04/25 01:47:51;;;;;;;11.73;5.80;;;9.00;99.90;;;;;;5121983;28;20162;-83
2021/04/25 01:50:20;;;;;;;20.47;7.10;;;8.90;99.90;;;;;;5103610;28;20382;-83
2021/04/25 01:52:46;;;;;;;10.70;7.10;;;8.90;99.90;;;;;;5120903;28;20455;-83
2021/04/25 01:55:13;;;;;;;15.43;6.83;;;8.80;99.90;;;;;;5120352;28;20398;-83
2021/04/25 01:57:40;;;;;;;9.20;6.53;;;8.70;99.90;;;;;;5124103;27;20444;-83
2021/04/25 02:00:10;;;;;;;7.43;6.40;;;8.60;99.90;;;;;;5107262;27;20451;-83
2021/04/25 02:02:36;;;;;;;7.00;6.30;;;8.50;99.90;;;;;;5142821;27;20394;-83
2021/04/25 02:05:02;;;;;;;14.10;8.00;;;8.40;99.90;;;;;;5142480;27;20387;-83
2021/04/25 02:07:28;;;;;;;8.00;4.93;;;8.40;99.90;;;;;;5142215;27;20189;-83
2021/04/25 02:09:54;;;;;;;6.53;5.60;;;8.40;99.90;;;;;;5142514;27;20788;-83
2021/04/25 02:12:20;;;;;;;9.20;5.80;;;8.40;99.90;;;;;;5142844;27;20817;-83
2021/04/25 02:14:46;;;;;;;8.67;6.50;;;8.30;99.90;;;;;;5142315;27;20434;-83
2021/04/25 02:17:12;;;;;;;13.50;6.07;;;8.30;99.90;;;;;;5142325;27;20435;-83
2021/04/25 02:19:38;;;;;;;11.93;7.63;;;8.30;99.90;;;;;;5142335;27;20161;-83
2021/04/25 02:22:05;;;;;;;6.17;5.67;;;8.40;99.90;;;;;;5142269;27;20153;-83
2021/04/25 02:24:31;;;;;;;8.67;6.60;;;8.30;99.90;;;;;;5142293;27;20386;-84
2021/04/25 02:26:57;;;;;;;11.00;6.63;;;8.30;99.90;;;;;;5143041;27;20395;-83
2021/04/25 02:29:23;;;;;;;7.37;5.77;;;8.30;99.90;;;;;;5106538;27;20876;-83
2021/04/25 02:31:49;;;;;;;10.10;6.33;;;8.20;99.90;;;;;;5124099;27;20391;-83
2021/04/25 02:34:15;;;;;;;7.90;6.20;;;8.10;99.90;;;;;;5107263;27;20180;-83
2021/04/25 02:36:42;;;;;;;10.40;6.73;;;8.20;99.90;;;;;;5141511;27;20455;-83
2021/04/25 02:39:11;;;;;;;8.53;6.63;;;8.10;99.90;;;;;;5142629;27;20466;-83
2021/04/25 02:41:37;;;;;;;8.87;6.73;;;7.90;99.90;;;;;;5142324;27;20442;-83
2021/04/25 02:44:03;;;;;;;8.47;6.13;;;7.90;99.90;;;;;;5124024;27;20388;-83
2021/04/25 02:46:29;;;;;;;8.67;6.33;;;7.90;99.90;;;;;;5142432;27;20169;-83
2021/04/25 02:48:55;;;;;;;15.90;7.97;;;7.90;99.90;;;;;;5123870;27;20399;-82
2021/04/25 02:51:21;;;;;;;8.30;5.50;;;7.80;99.90;;;;;;5124476;27;20165;-83
2021/04/25 02:53:46;;;;;;;11.23;7.90;;;7.80;99.90;;;;;;5124013;27;20222;-83
2021/04/25 02:56:12;;;;;;;9.63;7.30;;;7.80;99.90;;;;;;5141881;27;20250;-83
2021/04/25 02:58:39;;;;;;;6.73;6.03;;;7.70;99.90;;;;;;5107314;27;20157;-83
2021/04/25 03:01:04;;;;;;;9.03;6.10;;;7.70;99.90;;;;;;5142480;27;20153;-83
2021/04/25 03:03:30;;;;;;;10.73;7.17;;;7.70;99.90;;;;;;5107642;27;20448;-83
2021/04/25 03:05:57;;;;;;;9.43;6.53;;;7.80;99.90;;;;;;5142197;27;20168;-83
2021/04/25 03:08:23;;;;;;;11.90;5.67;;;7.80;99.90;;;;;;5142411;27;20199;-83
2021/04/25 03:10:49;;;;;;;9.43;5.97;;;7.80;99.90;;;;;;5124700;27;20395;-83
2021/04/25 03:13:15;;;;;;;9.93;6.33;;;7.80;99.90;;;;;;5143072;27;20448;-83
2021/04/25 03:15:41;;;;;;;10.67;5.87;;;7.80;99.90;;;;;;5143602;27;20435;-83
2021/04/25 03:18:07;;;;;;;9.20;6.00;;;7.70;99.90;;;;;;5126586;27;20391;-83
2021/04/25 03:20:34;;;;;;;9.03;6.07;;;7.70;99.90;;;;;;5149714;27;20154;-83
2021/04/25 03:23:01;;;;;;;13.23;6.40;;;7.70;99.90;;;;;;5142062;27;20161;-83
2021/04/25 03:25:27;;;;;;;9.03;7.10;;;7.70;99.90;;;;;;5122972;27;20392;-83
2021/04/25 03:27:53;;;;;;;10.03;7.47;;;7.60;99.90;;;;;;5141756;27;20383;-82
2021/04/25 03:30:19;;;;;;;9.67;6.83;;;7.70;99.90;;;;;;5123330;27;20891;-83
2021/04/25 03:32:46;;;;;;;11.63;8.20;;;7.50;99.90;;;;;;5123017;27;20402;-83
2021/04/25 03:35:15;;;;;;;8.77;6.20;;;7.50;99.90;;;;;;5141247;27;20388;-83
2021/04/25 03:37:41;;;;;;;8.87;6.73;;;7.50;99.90;;;;;;5141027;27;20390;-83
2021/04/25 03:40:11;;;;;;;7.83;6.50;;;7.40;99.90;;;;;;5141046;27;20383;-82
2021/04/25 03:42:37;;;;;;;10.07;6.67;;;7.40;99.90;;;;;;5141431;27;20446;-83
2021/04/25 03:45:05;;;;;;;8.07;6.00;;;7.40;99.90;;;;;;5141680;27;20467;-83
2021/04/25 03:47:31;;;;;;;8.30;5.97;;;7.40;99.90;;;;;;5140414;27;20467;-83
2021/04/25 03:49:56;;;;;;;12.83;7.40;;;7.30;99.90;;;;;;5141632;27;20395;-83
2021/04/25 03:52:22;;;;;;;8.47;5.90;;;7.40;99.90;;;;;;5122770;27;20189;-83
2021/04/25 03:54:48;;;;;;;11.33;6.47;;;7.30;99.90;;;;;;5141190;27;20696;-83
2021/04/25 03:57:14;;;;;;;7.50;5.53;;;7.20;99.90;;;;;;5141867;27;20165;-84
2021/04/25 03:59:40;;;;;;;7.70;6.30;;;7.20;99.90;;;;;;5141631;27;20176;-83
2021/04/25 04:02:05;;;;;;;13.13;6.37;;;7.20;99.90;;;;;;5141724;27;20168;-83
2021/04/25 04:04:31;;;;;;;8.03;5.07;;;7.20;99.90;;;;;;5141810;27;20172;-83
2021/04/25 04:06:57;;;;;;;7.33;6.13;;;7.10;99.90;;;;;;5106158;27;20188;-83
2021/04/25 04:09:23;;;;;;;6.67;5.37;;;7.10;99.90;;;;;;5124983;27;20192;-84
2021/04/25 04:11:49;;;;;;;7.80;5.60;;;7.10;99.90;;;;;;5143263;27;20162;-83
2021/04/25 04:14:15;;;;;;;10.50;6.07;;;7.10;99.90;;;;;;5123159;27;20191;-83
2021/04/25 04:16:41;;;;;;;8.10;5.63;;;7.10;99.90;;;;;;5122693;27;20738;-82
2021/04/25 04:19:06;;;;;;;9.00;6.50;;;7.00;99.90;;;;;;5140226;27;20165;-82
2021/04/25 04:21:33;;;;;;;10.37;6.00;;;7.00;99.90;;;;;;5140607;27;20167;-82
2021/04/25 04:23:59;;;;;;;11.10;7.07;;;7.00;99.90;;;;;;5140924;27;20169;-83
2021/04/25 04:26:25;;;;;;;12.60;6.47;;;6.90;99.90;;;;;;5140499;27;20453;-83
2021/04/25 04:28:50;;;;;;;7.40;6.70;;;7.00;99.90;;;;;;5140752;27;20669;-82
2021/04/25 04:31:16;;;;;;;7.87;6.40;;;7.10;99.90;;;;;;5140941;27;20157;-83
2021/04/25 04:33:42;;;;;;;11.10;6.40;;;7.10;99.90;;;;;;5087644;27;20177;-83
2021/04/25 04:36:08;;;;;;;9.23;6.40;;;7.00;99.90;;;;;;5140310;27;20420;-82
2021/04/25 04:38:34;;;;;;;7.67;5.50;;;6.90;99.90;;;;;;5140976;27;20590;-81
2021/04/25 04:41:00;;;;;;;7.80;5.90;;;7.00;99.90;;;;;;5139747;27;20208;-83
2021/04/25 04:43:26;;;;;;;11.43;6.33;;;6.90;99.90;;;;;;5140125;27;20161;-83
2021/04/25 04:45:52;;;;;;;7.20;6.20;;;6.90;99.90;;;;;;5140223;27;20873;-82
2021/04/25 04:48:19;;;;;;;10.63;6.83;;;6.90;99.90;;;;;;5131378;27;20383;-83
2021/04/25 04:50:45;;;;;;;9.27;7.00;;;7.00;99.90;;;;;;5127534;28;20391;-83
2021/04/25 04:53:11;;;;;;;9.20;6.70;;;7.00;99.90;;;;;;5143430;28;20685;-82
2021/04/25 04:55:37;;;;;;;9.90;6.07;;;7.00;99.90;;;;;;5144599;28;20222;-82
2021/04/25 04:58:02;;;;;;;11.40;6.30;;;7.00;99.90;;;;;;5143236;28;20228;-82
2021/04/25 05:00:28;;;;;;;7.97;4.53;;;7.10;99.90;;;;;;5105447;28;20149;-82
2021/04/25 05:02:54;;;;;;;8.17;5.20;;;7.10;99.90;;;;;;5122354;28;20520;-82
2021/04/25 05:05:20;;;;;;;7.90;6.07;;;7.10;99.90;;;;;;5139213;28;20395;-82
2021/04/25 05:07:46;;;;;;;7.73;6.80;;;7.10;99.90;;;;;;5140046;28;20486;-82
2021/04/25 05:10:12;;;;;;;7.43;5.57;;;7.20;99.90;;;;;;5139763;28;20157;-81
2021/04/25 05:12:38;;;;;;;8.10;5.13;;;7.10;99.90;;;;;;5087746;28;20630;-82
2021/04/25 05:15:08;;;;;;;15.10;6.70;;;7.20;99.90;;;;;;5139801;28;20427;-84
2021/04/25 05:17:34;;;;;;;8.77;6.17;;;7.10;99.90;;;;;;5139648;28;20693;-83
2021/04/25 05:20:00;;;;;;;6.73;5.60;;;7.10;99.90;;;;;;5139331;28;20485;-84
2021/04/25 05:22:25;;;;;;;9.07;6.03;;;7.20;99.90;;;;;;5121028;28;20733;-84
2021/04/25 05:24:51;;;;;;;11.13;6.27;;;7.10;99.90;;;;;;5139188;28;20173;-83
2021/04/25 05:27:17;;;;;;;8.50;6.13;;;7.20;99.90;;;;;;5120288;28;20196;-81
2021/04/25 05:29:43;;;;;;;13.93;7.60;;;7.30;99.90;;;;;;5138993;27;20168;-83
2021/04/25 05:32:09;;;;;;;9.57;6.67;;;7.20;99.90;;;;;;5143326;27;20395;-83
2021/04/25 05:34:35;;;;;;;8.90;6.43;;;7.20;99.90;;;;;;5126421;27;20383;-82
2021/04/25 05:37:01;;;;;;;10.40;6.07;;;7.20;99.90;;;;;;5127610;27;20161;-83
2021/04/25 05:39:27;;;;;;;9.53;5.60;;;7.30;99.90;;;;;;5110657;27;20409;-83
2021/04/25 05:41:53;;;;;;;8.10;6.67;;;7.40;99.90;;;;;;5126051;27;20872;-83
2021/04/25 05:44:19;;;;;;;18.20;9.80;;;7.40;99.90;;;;;;5110068;27;20177;-83
2021/04/25 05:46:45;;;;;;;8.63;6.73;;;7.40;99.90;;;;;;5148554;27;20201;-83
2021/04/25 05:49:11;;;;;;;11.27;5.80;;;7.40;99.90;;;;;;5146007;27;20399;-84
2021/04/25 05:51:37;;;;;;;13.47;6.67;;;7.40;99.90;;;;;;5125930;27;20157;-82
2021/04/25 05:54:03;;;;;;;12.87;7.43;;;7.50;99.90;;;;;;5144366;27;20157;-84
2021/04/25 05:56:30;;;;;;;6.90;5.43;;;7.50;99.90;;;;;;5143929;27;20157;-82
2021/04/25 05:58:56;;;;;;;5.60;4.80;;;7.50;99.90;;;;;;5125862;27;20414;-84
2021/04/25 06:01:22;;;;;;;5.83;5.10;;;7.50;99.90;;;;;;5143566;27;20399;-84
2021/04/25 06:03:48;;;;;;;9.80;6.20;;;7.60;99.90;;;;;;5108183;27;20399;-83
2021/04/25 06:06:14;;;;;;;14.10;6.13;;;7.70;99.90;;;;;;5143578;27;20538;-84
2021/04/25 06:08:40;;;;;;;15.57;5.30;;;7.70;99.90;;;;;;5142893;27;20200;-82
2021/04/25 06:11:06;;;;;;;9.50;7.20;;;7.80;99.90;;;;;;5125135;27;20394;-83
2021/04/25 06:13:32;;;;;;;9.93;6.83;;;7.80;99.90;;;;;;5143145;27;20216;-83
2021/04/25 06:15:58;;;;;;;9.30;6.23;;;7.90;99.90;;;;;;5124745;27;20259;-82
2021/04/25 06:18:24;;;;;;;8.47;5.77;;;7.90;99.90;;;;;;5143422;27;20882;-83
2021/04/25 06:20:50;;;;;;;10.67;6.77;;;8.00;99.90;;;;;;5143524;27;20395;-84
2021/04/25 06:23:16;;;;;;;6.10;5.00;;;8.00;99.90;;;;;;5107382;27;20165;-84
2021/04/25 06:25:42;;;;;;;7.73;6.10;;;8.10;99.90;;;;;;5124464;27;20450;-83
2021/04/25 06:28:08;;;;;;;5.67;4.90;;;8.10;99.90;;;;;;5142594;27;20395;-84
2021/04/25 06:30:34;;;;;;;9.43;6.33;;;8.20;99.90;;;;;;5142662;27;20150;-84
2021/04/25 06:33:00;;;;;;;7.73;5.73;;;8.30;99.90;;;;;;5124135;27;20397;-83
2021/04/25 06:35:26;;;;;;;7.60;6.40;;;8.40;99.90;;;;;;5107442;27;20861;-83
2021/04/25 06:37:52;;;;;;;11.40;5.80;;;8.30;99.90;;;;;;5125484;27;20154;-83
2021/04/25 06:40:19;;;;;;;7.17;5.97;;;8.30;99.90;;;;;;5123983;27;20200;-83
2021/04/25 06:42:45;;;;;;;6.60;5.00;;;8.50;99.90;;;;;;5104264;28;20213;-83
2021/04/25 06:45:15;;;;;;;6.73;5.00;;;8.60;99.90;;;;;;5070006;28;20557;-82
2021/04/25 06:47:41;;;;;;;10.10;5.10;;;8.60;99.90;;;;;;5086543;28;20166;-83
2021/04/25 06:50:10;;;;;;;7.27;6.03;;;8.60;99.90;;;;;;5103630;28;20751;-83
2021/04/25 06:52:37;;;;;;;8.20;6.37;;;8.70;99.90;;;;;;5104325;28;20392;-83
2021/04/25 06:55:04;;;;;;;6.10;4.50;;;8.70;99.90;;;;;;5087001;28;20381;-83
2021/04/25 06:57:30;;;;;;;9.80;5.43;;;8.80;99.90;;;;;;5086799;28;20860;-84
2021/04/25 06:59:56;;;;;;;5.60;4.20;;;8.80;99.90;;;;;;5103396;28;20483;-84
2021/04/25 07:02:23;;;;;;;12.30;5.60;;;8.90;99.90;;;;;;5103137;28;20158;-83
2021/04/25 07:04:49;;;;;;;6.43;5.27;;;9.00;99.90;;;;;;5086448;28;20419;-84
2021/04/25 07:07:15;;;;;;;15.37;5.83;;;9.20;99.90;;;;;;5103268;28;20431;-83
2021/04/25 07:09:41;;;;;;;5.93;5.37;;;9.20;99.90;;;;;;5103245;28;20150;-84
2021/04/25 07:12:07;;;;;;;7.77;5.60;;;9.20;99.90;;;;;;5122286;28;20233;-83
2021/04/25 07:14:36;;;;;;;7.73;6.50;;;9.40;99.90;;;;;;5123094;28;20380;-84
2021/04/25 07:17:02;;;;;;;7.00;6.30;;;9.40;99.90;;;;;;5108343;28;20483;-84
2021/04/25 07:19:30;;;;;;;6.17;4.67;;;9.40;99.90;;;;;;5108637;28;20410;-83
2021/04/25 07:21:56;;;;;;;9.63;5.30;;;9.50;99.90;;;;;;5124206;28;20395;-83
2021/04/25 07:24:22;;;;;;;5.80;5.20;;;9.70;99.90;;;;;;5123205;28;20489;-84
2021/04/25 07:26:48;;;;;;;9.70;5.50;;;9.70;99.90;;;;;;5122980;28;20491;-83
2021/04/25 07:29:14;;;;;;;8.57;5.20;;;9.60;99.90;;;;;;5121862;28;20155;-83
2021/04/25 07:31:41;;;;;;;11.73;4.33;;;9.80;99.90;;;;;;5122050;28;20165;-84
2021/04/25 07:34:08;;;;;;;7.60;4.80;;;9.80;99.90;;;;;;5103475;28;20492;-84
2021/04/25 07:36:34;;;;;;;6.60;4.33;;;9.90;99.90;;;;;;5121501;28;20388;-84
2021/04/25 07:39:01;;;;;;;7.40;6.70;;;9.90;99.90;;;;;;5103342;28;20404;-84
2021/04/25 07:41:27;;;;;;;8.73;4.50;;;10.00;99.90;;;;;;5049184;28;20476;-84
2021/04/25 07:43:52;;;;;;;6.40;4.70;;;10.00;99.90;;;;;;5061796;28;20910;-84
2021/04/25 07:46:21;;;;;;;7.13;5.10;;;10.20;99.90;;;;;;5078247;28;20454;-83
2021/04/25 07:48:47;;;;;;;8.20;4.33;;;10.20;99.90;;;;;;5062851;28;20156;-84
2021/04/25 07:51:13;;;;;;;8.60;4.40;;;10.40;99.90;;;;;;5080672;28;20434;-84
2021/04/25 07:53:39;;;;;;;5.07;4.50;;;10.40;99.90;;;;;;5031416;28;20425;-83
2021/04/25 07:56:06;;;;;;;8.13;6.07;;;10.50;99.90;;;;;;5068262;28;20202;-83
2021/04/25 07:58:32;;;;;;;8.53;6.70;;;10.40;99.90;;;;;;5029504;28;20394;-83
2021/04/25 08:00:58;;;;;;;8.03;5.47;;;10.40;99.90;;;;;;5061283;28;20455;-83
2021/04/25 08:03:23;;;;;;;8.43;5.10;;;10.40;99.90;;;;;;5060500;28;20812;-84
2021/04/25 08:05:49;;;;;;;6.70;5.23;;;10.40;99.90;;;;;;5060639;28;20634;-83
2021/04/25 08:08:15;;;;;;;8.33;4.63;;;10.50;99.90;;;;;;5076776;28;20194;-83
2021/04/25 08:10:42;;;;;;;6.93;4.57;;;10.50;99.90;;;;;;5060175;28;20159;-83
2021/04/25 08:13:08;;;;;;;6.37;3.30;;;10.50;99.90;;;;;;5093185;28;20272;-83
2021/04/25 08:15:34;;;;;;;7.37;4.17;;;10.60;99.90;;;;;;5119373;28;20410;-83
2021/04/25 08:18:01;;;;;;;6.43;3.80;;;10.70;99.90;;;;;;5119707;28;20392;-84
2021/04/25 08:20:27;;;;;;;10.10;4.70;;;10.80;99.90;;;;;;5084676;28;20165;-84
2021/04/25 08:22:53;;;;;;;7.03;4.00;;;10.80;99.90;;;;;;5119839;28;20743;-83
2021/04/25 08:25:19;;;;;;;8.13;4.40;;;10.80;99.90;;;;;;5101063;28;20392;-84
2021/04/25 08:27:45;;;;;;;4.30;3.90;;;10.60;99.90;;;;;;5101056;28;20166;-83
2021/04/25 08:30:12;;;;;;;6.47;3.40;;;10.70;99.90;;;;;;5101596;28;20430;-84
2021/04/25 08:32:37;;;;;;;9.03;4.33;;;10.80;99.90;;;;;;5119563;28;20392;-83
2021/04/25 08:35:05;;;;;;;5.37;3.80;;;10.90;99.90;;;;;;5119362;28;20388;-84
2021/04/25 08:37:31;;;;;;;6.70;3.77;;;11.00;99.90;;;;;;5101518;28;20230;-84
2021/04/25 08:39:57;;;;;;;16.93;4.93;;;10.90;99.90;;;;;;5119565;28;20864;-83
2021/04/25 08:42:23;;;;;;;7.13;5.00;;;10.90;99.90;;;;;;5102018;28;20232;-84
2021/04/25 08:44:49;;;;;;;5.50;4.10;;;11.10;99.90;;;;;;5120073;28;20411;-83
2021/04/25 08:47:15;;;;;;;6.63;4.00;;;11.20;99.90;;;;;;5101278;28;20182;-83
2021/04/25 08:49:42;;;;;;;5.23;4.30;;;11.30;99.90;;;;;;5101490;28;20410;-84
2021/04/25 08:52:09;;;;;;;7.23;4.30;;;11.50;99.90;;;;;;5119963;28;20388;-83
2021/04/25 08:54:35;;;;;;;8.63;4.40;;;11.50;99.90;;;;;;5119804;28;20384;-84
2021/04/25 08:57:01;;;;;;;6.50;3.97;;;11.40;99.90;;;;;;5101271;28;20403;-83
2021/04/25 08:59:27;;;;;;;5.73;3.67;;;11.50;99.90;;;;;;5101910;28;20161;-84
2021/04/25 09:01:53;;;;;;;5.07;4.27;;;11.60;99.90;;;;;;5119945;28;20399;-84
2021/04/25 09:04:19;;;;;;;4.97;3.80;;;11.80;99.90;;;;;;5120190;28;20400;-84
2021/04/25 09:07:05;;;;;;;5.10;3.73;;;11.70;99.90;;;;;;5128031;28;20435;-83
2021/04/25 09:09:49;;;;;;;6.10;3.67;;;11.70;99.90;;;;;;5134369;28;20154;-84
2021/04/25 09:12:30;;;;;;;3.50;3.20;;;11.80;99.90;;;;;;5106717;28;20478;-84
2021/04/25 09:14:56;;;;;;;5.97;4.13;;;12.00;99.90;;;;;;5105996;28;20391;-84
2021/04/25 09:17:22;;;;;;;5.20;3.50;;;12.10;99.90;;;;;;5124175;28;20457;-84
2021/04/25 09:19:52;;;;;;;6.70;4.10;;;11.80;99.90;;;;;;5088802;28;20512;-84
2021/04/25 09:22:21;;;;;;;6.77;3.90;;;12.00;99.90;;;;;;5104905;28;20166;-83
2021/04/25 09:24:48;;;;;;;7.60;3.80;;;12.20;99.90;;;;;;5123513;28;20424;-84
2021/04/25 09:27:26;;;;;;;5.60;4.60;;;12.10;99.90;;;;;;5123540;28;20818;-84
2021/04/25 09:29:57;;;;;;;8.10;4.00;;;12.20;99.90;;;;;;5123851;28;20388;-84
2021/04/25 09:32:26;;;;;;;4.80;3.70;;;12.30;99.90;;;;;;5106086;28;20430;-84
2021/04/25 09:35:11;;;;;;;10.70;5.90;;;12.10;99.30;;;;;;5123707;28;20388;-84
2021/04/25 09:37:41;;;;;;;11.77;6.00;;;12.10;98.90;;;;;;5124449;28;20395;-84
2021/04/25 09:40:14;;;;;;;5.53;4.20;;;12.30;99.90;;;;;;5089530;28;20448;-84
2021/04/25 09:43:03;;;;;;;4.10;3.57;;;12.40;99.50;;;;;;5107791;27;20537;-84
2021/04/25 09:45:34;;;;;;;5.37;3.20;;;12.50;98.80;;;;;;5126008;27;20398;-84
2021/04/25 09:48:17;;;;;;;3.73;3.40;;;12.70;97.70;;;;;;5126220;27;20398;-84
2021/04/25 09:50:43;;;;;;;4.13;3.73;;;12.70;99.00;;;;;;5094200;27;20395;-84
2021/04/25 09:53:24;;;;;;;4.43;4.00;;;12.70;97.80;;;;;;5126222;27;20463;-84
2021/04/25 09:55:58;;;;;;;4.20;3.80;;;12.80;95.90;;;;;;5144264;27;20394;-84
2021/04/25 09:58:27;;;;;;;4.23;3.70;;;12.90;97.90;;;;;;5144097;27;20387;-84
2021/04/25 10:00:54;;;;;;;4.53;3.53;;;13.00;97.80;;;;;;5110469;27;20468;-84
2021/04/25 10:03:22;;;;;;;4.90;3.47;;;13.10;98.00;;;;;;5126323;27;20562;-84
2021/04/25 10:06:04;;;;;;;6.07;4.17;;;13.20;95.30;;;;;;5126754;27;20997;-84
2021/04/25 10:08:32;;;;;;;3.63;3.13;;;13.40;97.70;;;;;;5109166;27;20410;-84
2021/04/25 10:11:03;;;;;;;4.10;3.50;;;13.20;94.90;;;;;;5126685;27;20398;-84
2021/04/25 10:13:30;;;;;;;5.57;4.33;;;13.50;91.90;;;;;;5146220;27;20379;-84
2021/04/25 10:15:56;;;;;;;6.97;4.33;;;13.60;94.00;;;;;;5126368;27;20402;-84
2021/04/25 10:18:23;;;;;;;8.70;3.50;;;13.60;94.50;;;;;;5108219;27;20387;-84
2021/04/25 10:20:54;;;;;;;7.13;3.33;;;13.70;93.10;;;;;;5126423;27;20414;-84
2021/04/25 10:23:21;;;;;;;6.47;4.00;;;13.70;92.10;;;;;;5111014;27;20778;-84
2021/04/25 10:25:48;;;;;;;9.53;4.20;;;13.90;90.00;;;;;;5148460;27;20430;-84
2021/04/25 10:28:19;;;;;;;3.30;2.80;;;13.50;90.50;;;;;;5150957;27;20863;-84
2021/04/25 10:30:47;;;;;;;4.77;3.27;;;13.30;91.20;;;;;;5116093;27;20844;-84
2021/04/25 10:33:13;;;;;;;11.13;3.67;;;13.70;92.70;;;;;;5154246;27;20387;-84
2021/04/25 10:35:54;;;;;;;3.47;3.17;;;14.30;93.20;;;;;;5132868;27;20792;-84
2021/04/25 10:38:35;;;;;;;6.67;4.23;;;14.40;90.00;;;;;;5151435;27;20395;-84
2021/04/25 10:41:20;;;;;;;5.00;3.83;;;14.50;87.60;;;;;;5145267;27;20794;-84
2021/04/25 10:44:01;;;;;;;8.73;3.10;;;14.50;90.80;;;;;;5126822;27;20848;-84
2021/04/25 10:47:05;;;;;;;5.00;3.50;;;14.70;88.70;;;;;;5125828;27;20528;-84
2021/04/25 10:49:34;;;;;;;7.43;3.67;;;14.60;86.50;;;;;;5142253;27;20527;-84
2021/04/25 10:52:25;;;;;;;5.10;3.93;;;14.90;90.30;;;;;;5124956;27;20741;-84
2021/04/25 10:55:19;;;;;;;4.73;3.77;;;14.90;87.60;;;;;;5142170;27;20399;-83
2021/04/25 10:58:21;;;;;;;4.00;3.60;;;15.40;87.60;;;;;;5141904;27;20479;-85
2021/04/25 11:00:47;;;;;;;6.73;4.40;;;15.40;87.00;;;;;;5099842;28;20407;-85
2021/04/25 11:03:38;;;;;;;5.90;4.27;;;15.20;80.30;;;;;;5086582;28;20432;-85
2021/04/25 11:06:22;;;;;;;7.23;4.10;;;14.80;81.90;;;;;;5090838;28;20546;-84
2021/04/25 11:08:48;;;;;;;13.83;3.50;;;15.50;86.90;;;;;;5121252;28;20533;-85
2021/04/25 11:11:30;;;;;;;4.20;3.63;;;15.20;84.80;;;;;;5103161;28;20396;-85
2021/04/25 11:13:57;;;;;;;3.63;3.30;;;14.70;78.70;;;;;;5121852;28;20191;-83
2021/04/25 11:16:27;;;;;;;8.13;4.03;;;15.70;80.50;;;;;;5122912;28;20399;-84
2021/04/25 11:19:00;;;;;;;3.83;3.13;;;16.60;77.10;;;;;;5123210;28;20399;-84
2021/04/25 11:21:50;;;;;;;3.50;3.20;;;16.60;76.40;;;;;;5104622;28;20403;-82
2021/04/25 11:24:26;;;;;;;4.37;3.83;;;16.20;79.10;;;;;;5089833;28;20396;-82
2021/04/25 11:26:56;;;;;;;8.93;3.17;;;15.60;77.70;;;;;;5102995;28;20451;-84
2021/04/25 11:29:50;;;;;;;8.90;4.10;;;15.30;77.30;;;;;;5102769;28;20698;-84
2021/04/25 11:32:26;;;;;;;4.77;3.10;;;16.80;75.60;;;;;;5102647;28;20411;-83
2021/04/25 11:34:56;;;;;;;4.50;2.90;;;18.00;73.20;;;;;;5102262;28;20434;-82
2021/04/25 11:37:24;;;;;;;5.20;4.17;;;16.60;71.10;;;;;;5120627;28;20395;-84
2021/04/25 11:39:58;;;;;;;4.53;4.07;;;18.00;72.90;;;;;;5121003;28;20399;-84
2021/04/25 11:42:38;;;;;;;6.90;2.90;;;18.90;68.90;;;;;;5102515;28;20550;-85
2021/04/25 11:45:08;;;;;;;3.00;2.70;;;19.40;65.90;;;;;;5120972;28;20479;-83
2021/04/25 11:47:35;;;;;;;3.57;3.23;;;19.10;60.50;;;;;;5121601;28;20482;-83
2021/04/25 11:50:04;;;;;;;3.77;3.33;;;19.20;61.90;;;;;;5122190;28;20495;-83
2021/04/25 11:52:35;;;;;;;30.07;4.10;;;16.90;63.00;;;;;;5087432;28;20392;-82
2021/04/25 11:55:04;;;;;;;5.60;3.23;;;17.60;61.80;;;;;;5073818;28;20475;-84
2021/04/25 11:57:33;;;;;;;4.20;3.13;;;18.70;60.90;;;;;;5103003;28;20396;-83
2021/04/25 12:00:11;;;;;;;3.40;2.97;;;20.00;58.50;;;;;;5103724;28;20411;-84
2021/04/25 12:02:49;;;;;;;3.43;3.13;;;20.50;59.50;;;;;;5104640;28;20432;-84
2021/04/25 12:05:23;;;;;;;5.40;3.97;;;20.90;57.30;;;;;;5121399;28;20936;-84
2021/04/25 12:07:58;;;;;;;3.77;3.47;;;20.60;55.20;;;;;;5057764;28;20816;-84
2021/04/25 12:10:31;;;;;;;2.90;2.60;;;21.30;57.40;;;;;;5097589;28;20407;-84
2021/04/25 12:13:20;;;;;;;3.97;3.00;;;19.30;55.00;;;;;;5102802;28;20418;-84
2021/04/25 12:15:51;;;;;;;5.73;2.80;;;19.10;56.90;;;;;;5103283;28;20476;-84
2021/04/25 12:18:22;;;;;;;4.00;3.70;;;20.20;56.20;;;;;;5120124;28;20392;-84
2021/04/25 12:20:51;;;;;;;4.10;2.90;;;20.30;54.20;;;;;;5093902;28;20480;-84
2021/04/25 12:23:22;;;;;;;2.60;2.40;;;21.30;55.30;;;;;;5102070;28;20879;-84
2021/04/25 12:25:49;;;;;;;5.57;2.70;;;20.50;53.00;;;;;;5085216;28;20411;-84
2021/04/25 12:28:17;;;;;;;8.33;3.30;;;19.90;53.00;;;;;;5119985;28;20780;-85
2021/04/25 12:30:45;;;;;;;3.23;2.93;;;18.90;54.80;;;;;;5102820;28;20402;-84
2021/04/25 12:33:15;;;;;;;8.27;2.90;;;19.20;55.20;;;;;;5120547;28;20414;-84
2021/04/25 12:35:47;;;;;;;5.97;3.00;;;19.20;55.20;;;;;;5103925;28;20410;-84
2021/04/25 12:38:30;;;;;;;3.37;3.07;;;18.70;55.90;;;;;;5092503;28;20395;-84
2021/04/25 12:40:59;;;;;;;4.70;3.20;;;19.00;55.50;;;;;;5119439;28;20554;-84
2021/04/25 12:43:33;;;;;;;6.73;4.07;;;18.60;54.30;;;;;;5119584;28;20368;-83
2021/04/25 12:46:10;;;;;;;2.93;2.60;;;19.00;54.50;;;;;;5119021;28;20392;-84
2021/04/25 12:48:39;;;;;;;6.57;2.90;;;20.30;53.90;;;;;;5119136;28;20734;-84
2021/04/25 12:51:08;;;;;;;4.20;2.50;;;20.30;52.20;;;;;;5119485;28;20902;-84
2021/04/25 12:53:42;;;;;;;6.83;5.10;;;20.80;51.20;;;;;;5102040;28;20408;-85
2021/04/25 12:56:28;;;;;;;3.23;2.93;;;20.30;54.50;;;;;;5101999;28;20458;-85